< Typhoon 199703 1997 Season Typhoon 199705 >
Typhoon 199704 (LEVI)
General InformationTrack Information on Google MapsDetailed Wind InformationList of All Images || Disaster Info.ResourceGoogle EarthGE AnimationAtom FeedGeoJSON
Detalied Best Track (Time Zone = UTC)
Year Month Day Hour Lat. Long. Pressure (hPa) Wind (kt) Class Image Chart
1997 5 26 00 16.3 119.3 1002 0 2 Image Chart
1997 5 26 06 16.3 120.7 1002 0 2 Image Chart
1997 5 26 12 16.3 121.9 1002 0 2 Image Chart
1997 5 26 18 16.4 123.2 1002 0 2 Image Chart
1997 5 27 00 16.7 124.4 1000 0 2 Image Chart
1997 5 27 06 17.3 125.4 1000 0 2 Image Chart
1997 5 27 12 18.1 126.0 996 0 2 Image Chart
1997 5 27 18 19.1 126.3 996 0 2 Image Chart
1997 5 28 00 20.0 126.4 994 35 3 Image Chart
1997 5 28 06 20.8 126.5 994 35 3 Image Chart
1997 5 28 12 21.7 126.6 992 40 3 Image Chart
1997 5 28 18 22.9 126.7 992 40 3 Image Chart
1997 5 29 00 24.0 127.2 994 35 3 Image Chart
1997 5 29 03 24.5 127.8 994 35 3 Image Chart
1997 5 29 06 25.0 128.4 994 35 3 Image Chart
1997 5 29 09 25.6 129.2 996 0 2 Image Chart
1997 5 29 12 26.2 130.0 996 0 2 Image Chart
1997 5 29 18 27.4 132.0 996 0 2 Image Chart
1997 5 30 00 28.4 134.5 998 0 2 Image Chart
1997 5 30 06 29.1 137.3 998 0 2 Image Chart
1997 5 30 12 29.9 139.3 1000 0 2 Image Chart
1997 5 30 18 30.7 141.0 1000 0 2 Image Chart
1997 5 31 00 31.6 142.7 1000 0 6 Image Chart
1997 5 31 06 32.4 144.9 998 0 6 Image Chart
1997 5 31 12 33.1 146.9 996 0 6 Image Chart
1997 5 31 18 33.8 149.2 996 0 6 Image Chart
1997 6 1 00 33.9 150.8 996 0 6 Image Chart
1997 6 1 06 34.0 152.8 996 0 6 Image Chart
1997 6 1 12 34.0 155.1 996 0 6 Image Chart
1997 6 1 18 34.0 158.8 996 0 6 Image Chart
1997 6 2 00 34.0 161.8 998 0 6 Image Chart
1997 6 2 06 34.0 165.3 998 0 6 Image Chart
1997 6 2 12 34.0 169.6 1002 0 6 Image Chart
1997 6 2 18 34.6 172.5 1006 0 6 Image Chart
1997 6 3 00 35.7 177.0 1006 0 6 Image Chart
1997 6 3 06 39.1 182.0 1006 0 6 Image Chart
Japan Meteorological Agency Best Track Data | Correction Date : 1998-01-19
< Typhoon 199703 1997 Season Typhoon 199705 >

Help